Time;durP1;ratioP1;P1;durP2;ratioP2;P2;SDS_P1;SDS_P2;PMS_P1;PMS_P2;Temp;Humidity;BMP_temperature;BMP_pressure;BME280_temperature;BME280_humidity;BME280_pressure;Samples;Min_cycle;Max_cycle;Signal;HPM_P1;HPM_P2
2023/04/06 00:01:09;;;;;;;1999.90;999.90;;;;;;;1.23;68.23;98156.88;5116916;27;20023;-76
2023/04/06 00:03:35;;;;;;;1999.90;999.90;;;;;;;1.25;68.32;98159.38;5134845;27;20027;-77
2023/04/06 00:06:00;;;;;;;1999.90;999.90;;;;;;;1.31;68.06;98158.44;5116495;27;20391;-75
2023/04/06 00:08:26;;;;;;;1999.90;999.90;;;;;;;1.25;67.69;98151.28;5134962;27;20043;-76
2023/04/06 00:10:52;;;;;;;1999.90;999.90;;;;;;;1.15;68.50;98151.84;5135039;27;20113;-76
2023/04/06 00:13:17;;;;;;;1999.90;999.90;;;;;;;1.11;68.74;98147.97;5134821;27;20113;-76
2023/04/06 00:15:43;;;;;;;1999.90;999.90;;;;;;;1.12;69.43;98146.91;5134821;27;20034;-76
2023/04/06 00:18:08;;;;;;;1999.90;999.90;;;;;;;1.04;69.76;98137.28;5116211;27;20779;-76
2023/04/06 00:20:34;;;;;;;1999.90;999.90;;;;;;;1.17;69.49;98157.81;5134679;27;20064;-77
2023/04/06 00:22:59;;;;;;;1999.90;999.90;;;;;;;1.10;69.50;98150.91;5134781;27;20023;-77
2023/04/06 00:25:25;;;;;;;1999.90;999.90;;;;;;;0.92;70.44;98152.59;5135092;27;20031;-76
2023/04/06 00:27:50;;;;;;;1999.90;999.90;;;;;;;0.85;71.43;98146.47;5135466;27;20391;-77
2023/04/06 00:30:16;;;;;;;1999.90;999.90;;;;;;;0.84;71.28;98152.09;5134926;27;20034;-77
2023/04/06 00:32:41;;;;;;;1999.90;999.90;;;;;;;0.96;70.48;98144.88;5135018;27;20467;-76
2023/04/06 00:35:07;;;;;;;1999.90;999.90;;;;;;;0.87;70.96;98147.09;5135497;27;20094;-75
2023/04/06 00:37:32;;;;;;;1999.90;999.90;;;;;;;0.78;71.61;98148.47;5135309;27;20364;-76
2023/04/06 00:39:58;;;;;;;1999.90;999.90;;;;;;;0.65;73.18;98140.56;5135231;27;20495;-76
2023/04/06 00:42:27;;;;;;;1999.90;999.90;;;;;;;0.63;74.69;98147.22;5134931;27;20048;-77
2023/04/06 00:44:54;;;;;;;1999.90;999.90;;;;;;;0.54;75.45;98144.81;5134791;27;20031;-76
2023/04/06 00:47:20;;;;;;;1999.90;999.90;;;;;;;0.58;74.80;98142.50;5116635;27;20831;-76
2023/04/06 00:49:45;;;;;;;1999.90;999.90;;;;;;;0.66;73.44;98154.84;5136107;27;20035;-76
2023/04/06 00:52:11;;;;;;;1999.90;999.90;;;;;;;0.57;74.07;98146.22;5137031;27;20486;-76
2023/04/06 00:54:36;;;;;;;1999.90;999.90;;;;;;;0.63;74.08;98136.47;5134936;27;20728;-77
2023/04/06 00:57:02;;;;;;;1999.90;999.90;;;;;;;0.57;74.67;98146.22;5134035;27;20069;-75
2023/04/06 00:59:28;;;;;;;1999.90;999.90;;;;;;;0.56;74.28;98139.22;5133906;27;20030;-75
2023/04/06 01:01:54;;;;;;;1999.90;999.90;;;;;;;0.50;73.68;98137.44;5134152;27;20053;-76
2023/04/06 01:04:19;;;;;;;1999.90;999.90;;;;;;;0.37;74.30;98151.06;5133542;27;20455;-76
2023/04/06 01:06:45;;;;;;;1999.90;999.90;;;;;;;0.42;74.31;98133.19;5134013;27;20031;-76
2023/04/06 01:09:11;;;;;;;1999.90;999.90;;;;;;;0.29;74.31;98137.91;5133628;27;20091;-76
2023/04/06 01:11:36;;;;;;;1999.90;999.90;;;;;;;0.27;74.06;98140.00;5133990;27;20035;-76
2023/04/06 01:14:03;;;;;;;1999.90;999.90;;;;;;;0.21;74.46;98135.53;5133608;27;20023;-76
2023/04/06 01:16:28;;;;;;;1999.90;999.90;;;;;;;0.08;75.08;98144.56;5133782;27;20395;-76
2023/04/06 01:18:54;;;;;;;1999.90;999.90;;;;;;;-0.03;75.74;98135.38;5133354;27;20023;-76
2023/04/06 01:21:19;;;;;;;1999.90;999.90;;;;;;;-0.03;76.55;98134.53;5133430;27;20019;-76
2023/04/06 01:23:48;;;;;;;1999.90;999.90;;;;;;;-0.05;76.87;98137.47;5133566;27;20545;-77
2023/04/06 01:26:13;;;;;;;1999.90;999.90;;;;;;;-0.09;77.33;98138.94;5133552;27;20056;-76
2023/04/06 01:28:39;;;;;;;1999.90;999.90;;;;;;;-0.16;77.85;98130.13;5133328;27;20027;-76
2023/04/06 01:31:07;;;;;;;1999.90;999.90;;;;;;;-0.23;78.81;98136.63;5133748;27;20439;-76
2023/04/06 01:33:32;;;;;;;1999.90;999.90;;;;;;;-0.38;79.78;98134.31;5133300;27;20027;-76
2023/04/06 01:35:57;;;;;;;1999.90;999.90;;;;;;;-0.34;80.00;98130.09;5133197;27;20019;-76
2023/04/06 01:38:23;;;;;;;1999.90;999.90;;;;;;;-0.31;80.18;98123.47;5131208;27;20095;-76
2023/04/06 01:40:48;;;;;;;1999.90;999.90;;;;;;;-0.34;80.36;98126.59;5129678;27;20025;-77
2023/04/06 01:43:14;;;;;;;1999.90;999.90;;;;;;;-0.40;81.20;98122.09;5132376;27;20043;-75
2023/04/06 01:45:39;;;;;;;1999.90;999.90;;;;;;;-0.58;82.42;98114.84;5133396;27;20436;-75
2023/04/06 01:48:07;;;;;;;1999.90;999.90;;;;;;;-0.44;82.30;98121.75;5107681;27;20030;-75
2023/04/06 01:50:32;;;;;;;1999.90;999.90;;;;;;;-0.47;82.37;98111.41;5123619;27;20495;-76
2023/04/06 01:52:57;;;;;;;1999.90;999.90;;;;;;;-0.51;82.79;98106.72;5111579;28;20023;-75
2023/04/06 01:55:23;;;;;;;1999.90;999.90;;;;;;;-0.32;82.10;98111.91;5125226;27;20023;-75
2023/04/06 01:57:49;;;;;;;1999.90;999.90;;;;;;;-0.45;82.54;98113.91;5132923;27;20402;-75
2023/04/06 02:00:15;;;;;;;1999.90;999.90;;;;;;;-0.31;81.87;98118.91;5133448;27;20482;-76
2023/04/06 02:02:41;;;;;;;1999.90;999.90;;;;;;;-0.42;82.03;98114.28;5133943;27;20034;-76
2023/04/06 02:05:07;;;;;;;1999.90;999.90;;;;;;;-0.46;82.34;98109.56;5135370;27;20110;-76
2023/04/06 02:07:33;;;;;;;1999.90;999.90;;;;;;;-0.45;82.82;98105.84;5119347;27;20139;-76
2023/04/06 02:09:58;;;;;;;1999.90;999.90;;;;;;;-0.44;82.71;98119.06;5111369;28;20443;-76
2023/04/06 02:12:23;;;;;;;1999.90;999.90;;;;;;;-0.38;82.74;98120.88;5111354;28;20490;-75
2023/04/06 02:14:49;;;;;;;1999.90;999.90;;;;;;;-0.36;82.66;98121.47;5111236;28;20524;-76
2023/04/06 02:17:14;;;;;;;1999.90;999.90;;;;;;;-0.40;83.23;98117.56;5111117;28;20024;-75
2023/04/06 02:19:40;;;;;;;1999.90;999.90;;;;;;;-0.51;83.88;98122.84;5111251;28;20031;-75
2023/04/06 02:22:05;;;;;;;1999.90;999.90;;;;;;;-0.52;83.72;98119.34;5111063;28;20069;-75
2023/04/06 02:24:31;;;;;;;1999.90;999.90;;;;;;;-0.52;83.70;98108.59;5111282;28;20046;-75
2023/04/06 02:26:56;;;;;;;1999.90;999.90;;;;;;;-0.51;84.45;98121.00;5111005;28;20020;-76
2023/04/06 02:29:22;;;;;;;1999.90;999.90;;;;;;;-0.48;83.99;98117.84;5111330;28;20031;-75
2023/04/06 02:31:47;;;;;;;1999.90;999.90;;;;;;;-0.56;84.21;98112.75;5111422;28;20024;-75
2023/04/06 02:34:17;;;;;;;1999.90;999.90;;;;;;;-0.47;84.26;98110.63;5111070;28;20035;-76
2023/04/06 02:36:44;;;;;;;1999.90;999.90;;;;;;;-0.48;84.10;98120.53;5110916;28;20498;-76
2023/04/06 02:39:10;;;;;;;1999.90;999.90;;;;;;;-0.48;84.65;98109.81;5111048;28;20044;-76
2023/04/06 02:41:35;;;;;;;1999.90;999.90;;;;;;;-0.53;83.28;98115.00;5125945;27;20383;-76
2023/04/06 02:44:01;;;;;;;1999.90;999.90;;;;;;;-0.45;82.39;98108.53;5131152;27;20403;-76
2023/04/06 02:46:26;;;;;;;1999.90;999.90;;;;;;;-0.64;83.13;98107.66;5130030;27;20088;-76
2023/04/06 02:48:51;;;;;;;1999.90;999.90;;;;;;;-0.57;84.28;98111.13;5131399;27;20031;-76
2023/04/06 02:51:17;;;;;;;1999.90;999.90;;;;;;;-0.53;83.51;98101.56;5131290;27;20031;-76
2023/04/06 02:53:42;;;;;;;1999.90;999.90;;;;;;;-0.59;83.94;98113.19;5131048;27;20478;-76
2023/04/06 02:56:07;;;;;;;1999.90;999.90;;;;;;;-0.60;84.39;98115.09;5112964;28;20114;-76
2023/04/06 02:58:33;;;;;;;1999.90;999.90;;;;;;;-0.50;84.51;98106.50;5114044;27;20027;-76
2023/04/06 03:00:58;;;;;;;1999.90;999.90;;;;;;;-0.53;84.85;98106.94;5133979;27;20121;-76
2023/04/06 03:03:24;;;;;;;1999.90;999.90;;;;;;;-0.46;84.31;98110.38;5133554;27;20023;-75
2023/04/06 03:05:49;;;;;;;1999.90;999.90;;;;;;;-0.48;83.82;98104.44;5131341;27;20436;-76
2023/04/06 03:08:15;;;;;;;1999.90;999.90;;;;;;;-0.54;84.12;98105.31;5130987;27;20071;-77
2023/04/06 03:10:40;;;;;;;1999.90;999.90;;;;;;;-0.49;84.73;98107.31;5131069;28;20023;-76
2023/04/06 03:13:06;;;;;;;1999.90;999.90;;;;;;;-0.59;84.94;98102.44;5131208;28;20038;-76
2023/04/06 03:15:31;;;;;;;1999.90;999.90;;;;;;;-0.63;85.53;98102.06;5131400;28;20061;-76
2023/04/06 03:17:58;;;;;;;1999.90;999.90;;;;;;;-0.66;85.82;98093.66;5131291;28;20027;-76
2023/04/06 03:20:23;;;;;;;1999.90;999.90;;;;;;;-0.68;85.01;98093.03;5147429;27;20026;-76
2023/04/06 03:22:48;;;;;;;1999.90;999.90;;;;;;;-0.59;84.54;98099.75;5130827;27;20042;-76
2023/04/06 03:25:14;;;;;;;1999.90;999.90;;;;;;;-0.62;83.57;98106.41;5131486;27;20482;-75
2023/04/06 03:27:40;;;;;;;1999.90;999.90;;;;;;;-0.71;83.58;98105.03;5131756;27;20015;-76
2023/04/06 03:30:06;;;;;;;1999.90;999.90;;;;;;;-0.71;83.34;98105.03;5132611;27;20650;-76
2023/04/06 03:32:31;;;;;;;1999.90;999.90;;;;;;;-0.75;84.90;98103.03;5133202;27;20547;-76
2023/04/06 03:34:57;;;;;;;1999.90;999.90;;;;;;;-0.88;86.20;98103.13;5130802;27;20027;-76
2023/04/06 03:37:22;;;;;;;1999.90;999.90;;;;;;;-0.90;86.91;98107.88;5131207;28;20027;-76
2023/04/06 03:39:47;;;;;;;1999.90;999.90;;;;;;;-0.91;87.47;98109.78;5130937;28;20084;-76
2023/04/06 03:42:13;;;;;;;1999.90;999.90;;;;;;;-0.97;88.08;98105.25;5130907;27;20504;-76
2023/04/06 03:44:38;;;;;;;1999.90;999.90;;;;;;;-0.94;88.89;98112.06;5130913;28;20034;-76
2023/04/06 03:47:03;;;;;;;1999.90;999.90;;;;;;;-0.97;89.00;98115.97;5130761;28;20026;-75
2023/04/06 03:49:29;;;;;;;1999.90;999.90;;;;;;;-0.99;89.41;98119.94;5128468;27;20384;-76
2023/04/06 03:51:56;;;;;;;1999.90;999.90;;;;;;;-1.07;89.91;98108.41;5121452;28;20028;-76
2023/04/06 03:54:21;;;;;;;1999.90;999.90;;;;;;;-1.05;89.53;98121.63;5110332;28;20031;-76
2023/04/06 03:56:47;;;;;;;1999.90;999.90;;;;;;;-1.13;89.75;98120.03;5123049;28;20023;-75
2023/04/06 03:59:12;;;;;;;1999.90;999.90;;;;;;;-1.15;89.93;98119.41;5130855;27;20039;-76
2023/04/06 04:01:39;;;;;;;1999.90;999.90;;;;;;;-1.20;91.32;98121.94;5131246;28;20106;-76
2023/04/06 04:04:04;;;;;;;1999.90;999.90;;;;;;;-1.10;91.87;98119.59;5130695;28;20023;-76
2023/04/06 04:06:30;;;;;;;1999.90;999.90;;;;;;;-1.16;91.98;98112.41;5132237;27;20053;-76
2023/04/06 04:08:56;;;;;;;1999.90;999.90;;;;;;;-1.12;92.02;98116.31;5121557;27;20086;-76
2023/04/06 04:11:21;;;;;;;1999.90;999.90;;;;;;;-1.09;91.71;98115.88;5129730;27;20020;-76
2023/04/06 04:13:47;;;;;;;1999.90;999.90;;;;;;;-1.07;92.31;98116.47;5113708;28;20415;-76
2023/04/06 04:16:12;;;;;;;1999.90;999.90;;;;;;;-1.11;93.02;98120.66;5114029;28;20038;-76
2023/04/06 04:18:37;;;;;;;1999.90;999.90;;;;;;;-0.97;92.06;98125.91;5113996;28;20035;-77
2023/04/06 04:21:03;;;;;;;1999.90;999.90;;;;;;;-1.05;92.96;98123.50;5113988;28;20020;-76
2023/04/06 04:23:28;;;;;;;1999.90;999.90;;;;;;;-1.14;93.62;98131.81;5114493;28;20024;-76
2023/04/06 04:25:54;;;;;;;1999.90;999.90;;;;;;;-1.15;94.46;98122.09;5114487;28;20020;-76
2023/04/06 04:28:19;;;;;;;1999.90;999.90;;;;;;;-1.09;95.12;98113.19;5114441;28;20449;-76
2023/04/06 04:30:45;;;;;;;1999.90;999.90;;;;;;;-1.07;94.54;98135.25;5114000;28;20448;-76
2023/04/06 04:33:11;;;;;;;1999.90;999.90;;;;;;;-1.08;95.07;98130.94;5123523;27;20027;-77
2023/04/06 04:35:36;;;;;;;1999.90;999.90;;;;;;;-1.08;95.38;98135.47;5124248;27;20081;-74
2023/04/06 04:38:02;;;;;;;1999.90;999.90;;;;;;;-1.08;96.30;98132.81;5134762;27;20471;-76
2023/04/06 04:40:27;;;;;;;1999.90;999.90;;;;;;;-1.04;96.58;98133.19;5130364;27;20026;-76
2023/04/06 04:42:52;;;;;;;1999.90;999.90;;;;;;;-1.11;97.63;98130.56;5114358;28;20483;-75
2023/04/06 04:45:18;;;;;;;1999.90;999.90;;;;;;;-1.10;98.34;98134.88;5114837;28;20487;-76
2023/04/06 04:47:43;;;;;;;1999.90;999.90;;;;;;;-0.97;97.81;98147.41;5115401;28;20023;-78
2023/04/06 04:50:09;;;;;;;1999.90;999.90;;;;;;;-0.95;97.23;98145.31;5114646;28;20058;-76
2023/04/06 04:52:34;;;;;;;1999.90;999.90;;;;;;;-0.91;97.56;98141.97;5120519;27;20394;-77
2023/04/06 04:55:00;;;;;;;1999.90;999.90;;;;;;;-0.97;97.64;98145.50;5117403;27;20062;-76
2023/04/06 04:57:25;;;;;;;1999.90;999.90;;;;;;;-0.95;97.98;98139.94;5136837;27;20019;-76
2023/04/06 04:59:51;;;;;;;1999.90;999.90;;;;;;;-0.78;97.60;98151.78;5136390;27;20023;-77
2023/04/06 05:02:17;;;;;;;1999.90;999.90;;;;;;;-0.67;96.15;98145.72;5135091;27;20023;-75
2023/04/06 05:04:42;;;;;;;1999.90;999.90;;;;;;;-0.55;94.90;98155.53;5139856;27;20058;-74
2023/04/06 05:07:09;;;;;;;1999.90;999.90;;;;;;;-0.43;94.57;98155.63;5135239;27;20023;-76
2023/04/06 05:09:35;;;;;;;1999.90;999.90;;;;;;;-0.36;93.44;98153.69;5134615;27;20080;-76
2023/04/06 05:12:01;;;;;;;1999.90;999.90;;;;;;;-0.36;92.78;98152.88;5133208;27;20020;-75
2023/04/06 05:14:27;;;;;;;1999.90;999.90;;;;;;;-0.23;92.44;98144.69;5132946;27;20023;-76
2023/04/06 05:16:53;;;;;;;1999.90;999.90;;;;;;;-0.09;91.54;98157.75;5133098;27;20086;-75
2023/04/06 05:19:19;;;;;;;1999.90;999.90;;;;;;;0.27;89.00;98148.06;5133453;27;20466;-76
2023/04/06 05:21:45;;;;;;;1999.90;999.90;;;;;;;0.79;84.04;98155.47;5133290;27;20151;-76
2023/04/06 05:24:10;;;;;;;1999.90;999.90;;;;;;;0.82;83.09;98165.78;5132669;27;20028;-77
2023/04/06 05:26:35;;;;;;;1999.90;999.90;;;;;;;0.76;82.38;98160.47;5114075;27;20487;-76
2023/04/06 05:29:01;;;;;;;1999.90;999.90;;;;;;;0.63;82.50;98161.47;5134498;27;20042;-76
2023/04/06 05:31:26;;;;;;;1999.90;999.90;;;;;;;0.56;81.59;98158.06;5112824;27;20051;-76
2023/04/06 05:33:52;;;;;;;1999.90;999.90;;;;;;;0.62;80.82;98156.34;5132431;27;20027;-77
2023/04/06 05:36:17;;;;;;;1999.90;999.90;;;;;;;0.85;80.01;98167.19;5131777;27;20038;-76
2023/04/06 05:38:43;;;;;;;1999.90;999.90;;;;;;;0.76;79.10;98155.91;5131305;27;20030;-76
2023/04/06 05:41:08;;;;;;;1999.90;999.90;;;;;;;0.82;79.07;98171.16;5131869;27;20133;-77
2023/04/06 05:43:34;;;;;;;1999.90;999.90;;;;;;;0.87;79.01;98168.63;5131821;27;20033;-78
2023/04/06 05:45:59;;;;;;;1999.90;999.90;;;;;;;0.99;78.43;98164.09;5111611;27;20466;-76
2023/04/06 05:48:25;;;;;;;1999.90;999.90;;;;;;;1.10;76.76;98188.59;5131522;27;20467;-73
2023/04/06 05:50:50;;;;;;;1999.90;999.90;;;;;;;1.14;76.40;98173.59;5131020;27;20075;-72
2023/04/06 05:53:16;;;;;;;1999.90;999.90;;;;;;;1.15;76.06;98178.78;5131329;27;20104;-73
2023/04/06 05:55:41;;;;;;;1999.90;999.90;;;;;;;1.13;75.04;98172.00;5135110;27;20035;-76
2023/04/06 05:58:07;;;;;;;1999.90;999.90;;;;;;;1.28;73.87;98177.75;5130352;27;20034;-77
2023/04/06 06:00:33;;;;;;;1999.90;999.90;;;;;;;1.40;74.46;98184.00;5130373;27;20420;-75
2023/04/06 06:02:58;;;;;;;1999.90;999.90;;;;;;;1.54;75.00;98185.41;5130737;27;20027;-77
2023/04/06 06:05:24;;;;;;;1999.90;999.90;;;;;;;1.76;72.96;98167.63;5130249;27;20721;-76
2023/04/06 06:07:49;;;;;;;1999.90;999.90;;;;;;;2.05;71.29;98171.25;5130051;27;20031;-76
2023/04/06 06:10:15;;;;;;;1999.90;999.90;;;;;;;1.89;70.67;98170.09;5130063;27;20072;-76
2023/04/06 06:12:40;;;;;;;1999.90;999.90;;;;;;;2.03;70.10;98163.44;5129590;27;20401;-76
2023/04/06 06:15:06;;;;;;;1999.90;999.90;;;;;;;2.13;69.52;98169.03;5113741;27;20030;-76
2023/04/06 06:17:31;;;;;;;1999.90;999.90;;;;;;;2.30;68.82;98171.00;5129611;27;20501;-76
2023/04/06 06:19:59;;;;;;;1999.90;999.90;;;;;;;2.25;67.44;98176.28;5130277;27;20051;-73
2023/04/06 06:22:25;;;;;;;1999.90;999.90;;;;;;;2.01;67.07;98168.22;5129703;27;20023;-75
2023/04/06 06:24:50;;;;;;;1999.90;999.90;;;;;;;2.14;67.36;98169.84;5131239;27;20034;-76
2023/04/06 06:27:16;;;;;;;1999.90;999.90;;;;;;;2.37;66.63;98175.22;5129368;27;20019;-76
2023/04/06 06:29:41;;;;;;;1999.90;999.90;;;;;;;2.32;66.46;98174.31;5129155;27;20019;-75
2023/04/06 06:32:08;;;;;;;1999.90;999.90;;;;;;;2.41;66.22;98165.56;5129882;27;20019;-76
2023/04/06 06:34:34;;;;;;;1999.90;999.90;;;;;;;2.57;65.24;98164.00;5130105;27;20023;-75
2023/04/06 06:37:00;;;;;;;1999.90;999.90;;;;;;;3.19;63.55;98163.09;5127245;27;20114;-78
2023/04/06 06:39:26;;;;;;;1999.90;999.90;;;;;;;3.35;62.19;98172.28;5129720;27;20027;-76
2023/04/06 06:41:51;;;;;;;1999.90;999.90;;;;;;;3.15;62.19;98156.53;5129071;27;20119;-76
2023/04/06 06:44:17;;;;;;;1999.90;999.90;;;;;;;3.22;62.58;98168.00;5126846;27;20023;-77
2023/04/06 06:46:42;;;;;;;1999.90;999.90;;;;;;;3.52;62.00;98167.69;5129735;27;20023;-76
2023/04/06 06:49:08;;;;;;;1999.90;999.90;;;;;;;3.45;61.47;98166.22;5129719;27;20116;-74
2023/04/06 06:51:33;;;;;;;1999.90;999.90;;;;;;;3.54;61.88;98164.75;5130500;27;20360;-76
2023/04/06 06:53:59;;;;;;;1999.90;999.90;;;;;;;3.71;60.74;98160.16;5127727;27;20467;-77
2023/04/06 06:56:26;;;;;;;1999.90;999.90;;;;;;;3.80;60.95;98155.97;5131081;27;20062;-76
2023/04/06 06:58:51;;;;;;;1999.90;999.90;;;;;;;3.99;60.51;98154.66;5131958;27;20041;-74
2023/04/06 07:01:17;;;;;;;1999.90;999.90;;;;;;;4.12;58.93;98158.91;5132193;27;20031;-77
2023/04/06 07:03:42;;;;;;;1999.90;999.90;;;;;;;4.14;58.74;98159.44;5135645;27;20391;-78
2023/04/06 07:06:08;;;;;;;1999.90;999.90;;;;;;;4.51;57.46;98167.84;5134865;27;20387;-76
2023/04/06 07:08:33;;;;;;;1999.90;999.90;;;;;;;4.71;56.73;98170.78;5130365;27;20043;-74
2023/04/06 07:10:59;;;;;;;1999.90;999.90;;;;;;;4.87;55.61;98159.06;5131204;27;20382;-75
2023/04/06 07:13:26;;;;;;;1999.90;999.90;;;;;;;5.11;54.88;98171.25;5131382;28;20615;-76
2023/04/06 07:15:52;;;;;;;1999.90;999.90;;;;;;;5.17;54.69;98172.94;5130648;27;20762;-75
2023/04/06 07:18:18;;;;;;;1999.90;999.90;;;;;;;5.14;55.17;98170.72;5131579;28;20019;-78
2023/04/06 07:20:44;;;;;;;1999.90;999.90;;;;;;;5.45;54.66;98171.06;5151523;27;20027;-74
2023/04/06 07:23:10;;;;;;;1999.90;999.90;;;;;;;6.08;52.50;98173.75;5152190;27;20037;-76
2023/04/06 07:25:35;;;;;;;1999.90;999.90;;;;;;;6.16;49.49;98170.56;5151688;27;20075;-79
2023/04/06 07:28:02;;;;;;;1999.90;999.90;;;;;;;6.54;48.37;98171.34;5152772;27;20026;-79
2023/04/06 07:30:28;;;;;;;1999.90;999.90;;;;;;;6.62;47.91;98170.81;5152685;27;20034;-79
2023/04/06 07:32:58;;;;;;;1999.90;999.90;;;;;;;7.09;46.97;98166.13;5153481;27;20030;-79
2023/04/06 07:35:25;;;;;;;1999.90;999.90;;;;;;;6.87;46.01;98171.75;5152540;27;20050;-76
2023/04/06 07:37:51;;;;;;;1999.90;999.90;;;;;;;6.51;46.90;98180.03;5152580;27;20044;-76
2023/04/06 07:40:16;;;;;;;1999.90;999.90;;;;;;;6.79;46.34;98166.03;5154608;27;20023;-76
2023/04/06 07:42:42;;;;;;;1999.90;999.90;;;;;;;7.26;45.53;98177.59;5159042;27;20106;-77
2023/04/06 07:45:08;;;;;;;1999.90;999.90;;;;;;;8.25;43.30;98165.38;5156763;27;20010;-75
2023/04/06 07:47:33;;;;;;;1999.90;999.90;;;;;;;10.01;39.30;98166.44;5158250;27;20468;-77
2023/04/06 07:49:59;;;;;;;1999.90;999.90;;;;;;;11.79;35.56;98181.31;5160664;27;20573;-75
2023/04/06 07:52:24;;;;;;;1999.90;999.90;;;;;;;12.91;32.71;98185.66;5155775;27;20382;-75
2023/04/06 07:54:50;;;;;;;1999.90;999.90;;;;;;;13.00;32.20;98180.28;5155942;27;20029;-78
2023/04/06 07:57:15;;;;;;;1999.90;999.90;;;;;;;14.08;30.62;98172.94;5155789;27;20063;-76
2023/04/06 07:59:41;;;;;;;1999.90;999.90;;;;;;;14.65;29.92;98183.06;5155022;27;20510;-76
2023/04/06 08:02:06;;;;;;;1999.90;999.90;;;;;;;15.85;27.94;98183.41;5155863;27;20019;-76
2023/04/06 08:04:32;;;;;;;1999.90;999.90;;;;;;;15.84;27.25;98176.28;5155899;27;20676;-79
2023/04/06 08:06:57;;;;;;;1999.90;999.90;;;;;;;15.88;27.02;98177.25;5155169;27;20031;-75
2023/04/06 08:09:22;;;;;;;1999.90;999.90;;;;;;;15.98;26.79;98171.41;5154776;27;20034;-77
2023/04/06 08:11:48;;;;;;;1999.90;999.90;;;;;;;16.17;26.70;98161.97;5154907;27;20424;-76
2023/04/06 08:14:15;;;;;;;1999.90;999.90;;;;;;;17.58;25.04;98176.28;5155126;27;20062;-76
2023/04/06 08:16:41;;;;;;;1999.90;999.90;;;;;;;17.75;24.36;98178.94;5155397;27;20030;-76
2023/04/06 08:19:09;;;;;;;1999.90;999.90;;;;;;;16.49;25.38;98175.25;5155540;27;20033;-75
2023/04/06 08:21:35;;;;;;;1999.90;999.90;;;;;;;15.21;27.53;98149.22;5154469;27;20050;-75
2023/04/06 08:24:01;;;;;;;1999.90;999.90;;;;;;;17.28;25.45;98163.59;5136685;27;20030;-77
2023/04/06 08:26:26;;;;;;;1999.90;999.90;;;;;;;18.36;24.02;98165.38;5155415;27;20117;-76
2023/04/06 08:28:52;;;;;;;1999.90;999.90;;;;;;;18.13;24.03;98174.09;5155153;27;20114;-74
2023/04/06 08:31:17;;;;;;;1999.90;999.90;;;;;;;18.23;23.51;98163.75;5154854;27;20390;-75
2023/04/06 08:33:43;;;;;;;1999.90;999.90;;;;;;;16.74;25.01;98138.47;5154757;27;20538;-78
2023/04/06 08:36:10;;;;;;;1999.90;999.90;;;;;;;12.85;28.77;98148.44;5154740;27;20034;-76
2023/04/06 08:38:36;;;;;;;1999.90;999.90;;;;;;;13.27;29.47;98139.09;5154359;27;20022;-75
2023/04/06 08:41:08;;;;;;;1999.90;999.90;;;;;;;15.22;27.43;98142.59;5154786;27;20023;-76
2023/04/06 08:43:41;;;;;;;1999.90;999.90;;;;;;;16.69;25.27;98146.97;5155275;27;20031;-82
2023/04/06 08:46:07;;;;;;;1999.90;999.90;;;;;;;17.39;24.23;98145.47;5154887;27;20466;-76
2023/04/06 08:48:34;;;;;;;1999.90;999.90;;;;;;;17.24;24.62;98138.56;5154858;27;20035;-82
2023/04/06 08:51:01;;;;;;;1999.90;999.90;;;;;;;17.44;24.00;98154.41;5155430;27;20515;-74
2023/04/06 08:53:26;;;;;;;1999.90;999.90;;;;;;;17.56;23.74;98139.84;5154342;27;20482;-76
2023/04/06 08:55:52;;;;;;;1999.90;999.90;;;;;;;16.08;24.89;98134.38;5140477;27;20432;-75
2023/04/06 08:58:17;;;;;;;1999.90;999.90;;;;;;;15.60;25.55;98131.78;5134136;27;20026;-76
2023/04/06 09:00:43;;;;;;;1999.90;999.90;;;;;;;15.15;26.13;98122.16;5133883;27;20155;-76
2023/04/06 09:03:12;;;;;;;1999.90;999.90;;;;;;;15.31;25.97;98124.13;5133674;27;20108;-76
2023/04/06 09:05:38;;;;;;;1999.90;999.90;;;;;;;15.01;26.02;98128.59;5133627;27;20037;-77
2023/04/06 09:08:04;;;;;;;1999.90;999.90;;;;;;;15.99;25.49;98122.56;5136309;27;20046;-79
2023/04/06 09:10:29;;;;;;;1999.90;999.90;;;;;;;16.03;25.57;98129.88;5155932;27;20027;-78
2023/04/06 09:13:08;;;;;;;1999.90;999.90;;;;;;;17.49;24.20;98137.59;5158836;27;20026;-84
2023/04/06 09:15:34;;;;;;;1999.90;999.90;;;;;;;18.02;23.24;98128.56;5143282;27;20463;-76
2023/04/06 09:18:00;;;;;;;1999.90;999.90;;;;;;;18.49;22.57;98117.19;5154754;27;20026;-76
2023/04/06 09:20:27;;;;;;;1999.90;999.90;;;;;;;17.99;22.93;98129.25;5154667;27;20023;-78
2023/04/06 09:22:54;;;;;;;1999.90;999.90;;;;;;;17.12;23.74;98111.63;5154763;27;20061;-78
2023/04/06 09:25:22;;;;;;;1999.90;999.90;;;;;;;16.66;24.46;98106.19;5154195;27;20034;-76
2023/04/06 09:27:49;;;;;;;1999.90;999.90;;;;;;;17.21;24.13;98103.28;5154314;27;20015;-78
2023/04/06 09:30:16;;;;;;;1999.90;999.90;;;;;;;17.00;24.05;98100.50;5154326;27;20030;-85
2023/04/06 09:32:50;;;;;;;1999.90;999.90;;;;;;;16.44;24.47;98103.63;5169501;27;20066;-81
2023/04/06 09:35:16;;;;;;;1999.90;999.90;;;;;;;17.14;24.08;98097.47;5135049;27;20083;-76
2023/04/06 09:37:43;;;;;;;1999.90;999.90;;;;;;;17.00;24.15;98102.44;5153951;27;20038;-75
2023/04/06 09:40:09;;;;;;;1999.90;999.90;;;;;;;17.12;24.00;98092.28;5153503;27;20536;-77
2023/04/06 09:42:35;;;;;;;1999.90;999.90;;;;;;;16.77;24.57;98088.09;5153382;27;20071;-79
2023/04/06 09:45:04;;;;;;;1999.90;999.90;;;;;;;17.64;23.88;98094.72;5153697;27;20015;-76
2023/04/06 09:47:30;;;;;;;1999.90;999.90;;;;;;;18.51;23.14;98090.78;5154812;27;20798;-77
2023/04/06 09:49:58;;;;;;;1999.90;999.90;;;;;;;19.34;22.11;98083.97;5153876;27;20026;-77
2023/04/06 09:52:51;;;;;;;1999.90;999.90;;;;;;;19.23;22.10;98078.91;5153644;27;20398;-77
2023/04/06 09:55:23;;;;;;;1999.90;999.90;;;;;;;18.60;22.34;98063.00;5123879;27;20502;-81
2023/04/06 09:58:03;;;;;;;1999.90;999.90;;;;;;;17.97;23.03;98070.66;5135743;27;20023;-80
2023/04/06 10:00:34;;;;;;;1999.90;999.90;;;;;;;18.08;22.30;98058.00;5157314;27;20159;-76
2023/04/06 10:03:18;;;;;;;1999.90;999.90;;;;;;;16.68;24.33;98056.94;5156159;27;20022;-81
2023/04/06 10:05:50;;;;;;;1999.90;999.90;;;;;;;18.02;23.45;98056.59;5134857;27;20487;-77
2023/04/06 10:08:17;;;;;;;1999.90;999.90;;;;;;;18.40;22.38;98039.72;5152952;27;20057;-83
2023/04/06 10:10:43;;;;;;;1999.90;999.90;;;;;;;19.32;21.69;98048.28;5153070;27;20482;-80
2023/04/06 10:13:11;;;;;;;1999.90;999.90;;;;;;;19.17;22.18;98035.13;5153728;27;20061;-83
2023/04/06 10:15:38;;;;;;;1999.90;999.90;;;;;;;20.27;21.25;98039.94;5155156;27;20019;-83
2023/04/06 10:18:04;;;;;;;1999.90;999.90;;;;;;;20.26;21.14;98032.81;5155491;27;20025;-78
2023/04/06 10:21:00;;;;;;;1999.90;999.90;;;;;;;18.96;21.93;98026.13;5148481;27;20030;-78
2023/04/06 10:23:41;;;;;;;1999.90;999.90;;;;;;;19.31;21.80;98013.38;5111708;28;20028;-82
2023/04/06 10:26:13;;;;;;;1999.90;999.90;;;;;;;15.39;26.27;98004.78;5112449;28;20051;-80
2023/04/06 10:28:41;;;;;;;1999.90;999.90;;;;;;;16.89;24.95;98013.56;5111613;28;20035;-79
2023/04/06 10:31:07;;;;;;;1999.90;999.90;;;;;;;16.26;25.51;98010.94;5111231;28;20038;-79
2023/04/06 10:33:32;;;;;;;1999.90;999.90;;;;;;;16.11;26.02;97997.69;5111795;28;20035;-82
2023/04/06 10:36:09;;;;;;;1999.90;999.90;;;;;;;15.86;25.41;98011.22;5114872;28;20111;-83
2023/04/06 10:38:37;;;;;;;1999.90;999.90;;;;;;;17.18;24.71;98009.16;5113033;28;20030;-79
2023/04/06 10:41:07;;;;;;;1999.90;999.90;;;;;;;18.55;23.29;98007.78;5111108;28;20027;-79
2023/04/06 10:43:37;;;;;;;1999.90;999.90;;;;;;;18.61;22.76;98003.63;5110768;28;20024;-75
2023/04/06 10:46:05;;;;;;;1999.90;999.90;;;;;;;17.99;22.94;97996.38;5111156;28;20419;-81
2023/04/06 10:48:44;;;;;;;1999.90;999.90;;;;;;;15.59;25.75;97995.06;5144175;27;20035;-84
2023/04/06 10:51:12;;;;;;;1999.90;999.90;;;;;;;14.06;27.02;97988.16;5154260;27;20030;-83
2023/04/06 10:53:38;;;;;;;1999.90;999.90;;;;;;;13.80;27.68;97986.06;5152318;27;20031;-74